sensor_id;sensor_type;location;lat;lon;timestamp;temperature;humidity
39045;DHT22;52192;52.002;5.956;2023-03-22T00:00:24;12.70;76.70
39045;DHT22;52192;52.002;5.956;2023-03-22T00:02:53;12.70;76.60
39045;DHT22;52192;52.002;5.956;2023-03-22T00:05:19;12.70;76.50
39045;DHT22;52192;52.002;5.956;2023-03-22T00:07:45;12.70;76.50
39045;DHT22;52192;52.002;5.956;2023-03-22T00:10:15;12.70;76.30
39045;DHT22;52192;52.002;5.956;2023-03-22T00:12:41;12.70;76.20
39045;DHT22;52192;52.002;5.956;2023-03-22T00:15:07;12.70;76.10
39045;DHT22;52192;52.002;5.956;2023-03-22T00:17:36;12.60;76.10
39045;DHT22;52192;52.002;5.956;2023-03-22T00:20:04;12.60;76.00
39045;DHT22;52192;52.002;5.956;2023-03-22T00:22:31;12.60;75.90
39045;DHT22;52192;52.002;5.956;2023-03-22T00:24:57;12.60;75.90
39045;DHT22;52192;52.002;5.956;2023-03-22T00:27:23;12.60;75.70
39045;DHT22;52192;52.002;5.956;2023-03-22T00:29:52;12.50;75.70
39045;DHT22;52192;52.002;5.956;2023-03-22T00:32:18;12.60;75.80
39045;DHT22;52192;52.002;5.956;2023-03-22T00:34:43;12.60;75.70
39045;DHT22;52192;52.002;5.956;2023-03-22T00:37:09;12.50;75.70
39045;DHT22;52192;52.002;5.956;2023-03-22T00:39:35;12.50;75.70
39045;DHT22;52192;52.002;5.956;2023-03-22T00:42:03;12.50;75.80
39045;DHT22;52192;52.002;5.956;2023-03-22T00:44:29;12.50;75.60
39045;DHT22;52192;52.002;5.956;2023-03-22T00:46:55;12.50;75.60
39045;DHT22;52192;52.002;5.956;2023-03-22T00:49:20;12.50;75.60
39045;DHT22;52192;52.002;5.956;2023-03-22T00:51:46;12.50;75.50
39045;DHT22;52192;52.002;5.956;2023-03-22T00:54:12;12.50;75.50
39045;DHT22;52192;52.002;5.956;2023-03-22T00:56:37;12.50;75.40
39045;DHT22;52192;52.002;5.956;2023-03-22T00:59:03;12.50;75.50
39045;DHT22;52192;52.002;5.956;2023-03-22T01:01:29;12.40;75.40
39045;DHT22;52192;52.002;5.956;2023-03-22T01:03:55;12.40;75.50
39045;DHT22;52192;52.002;5.956;2023-03-22T01:06:21;12.40;75.50
39045;DHT22;52192;52.002;5.956;2023-03-22T01:08:46;12.40;75.50
39045;DHT22;52192;52.002;5.956;2023-03-22T01:11:15;12.40;75.40
39045;DHT22;52192;52.002;5.956;2023-03-22T01:13:42;12.40;75.40
39045;DHT22;52192;52.002;5.956;2023-03-22T01:16:08;12.40;75.40
39045;DHT22;52192;52.002;5.956;2023-03-22T01:18:34;12.40;75.40
39045;DHT22;52192;52.002;5.956;2023-03-22T01:21:00;12.40;75.50
39045;DHT22;52192;52.002;5.956;2023-03-22T01:23:26;12.40;75.50
39045;DHT22;52192;52.002;5.956;2023-03-22T01:25:52;12.40;75.50
39045;DHT22;52192;52.002;5.956;2023-03-22T01:28:18;12.30;75.50
39045;DHT22;52192;52.002;5.956;2023-03-22T01:30:43;12.30;75.70
39045;DHT22;52192;52.002;5.956;2023-03-22T01:33:09;12.30;75.80
39045;DHT22;52192;52.002;5.956;2023-03-22T01:35:35;12.20;75.80
39045;DHT22;52192;52.002;5.956;2023-03-22T01:38:02;12.20;75.80
39045;DHT22;52192;52.002;5.956;2023-03-22T01:40:28;12.20;75.90
39045;DHT22;52192;52.002;5.956;2023-03-22T01:42:54;12.20;75.90
39045;DHT22;52192;52.002;5.956;2023-03-22T01:45:34;12.20;75.90
39045;DHT22;52192;52.002;5.956;2023-03-22T01:48:07;12.20;76.00
39045;DHT22;52192;52.002;5.956;2023-03-22T01:50:35;12.20;76.10
39045;DHT22;52192;52.002;5.956;2023-03-22T01:53:03;12.20;76.30
39045;DHT22;52192;52.002;5.956;2023-03-22T01:55:32;12.20;76.40
39045;DHT22;52192;52.002;5.956;2023-03-22T01:57:58;12.20;76.40
39045;DHT22;52192;52.002;5.956;2023-03-22T02:00:25;12.20;76.30
39045;DHT22;52192;52.002;5.956;2023-03-22T02:02:52;12.20;76.20
39045;DHT22;52192;52.002;5.956;2023-03-22T02:05:18;12.30;76.30
39045;DHT22;52192;52.002;5.956;2023-03-22T02:07:44;12.30;76.30
39045;DHT22;52192;52.002;5.956;2023-03-22T02:10:12;12.20;76.50
39045;DHT22;52192;52.002;5.956;2023-03-22T02:15:29;12.30;76.50
39045;DHT22;52192;52.002;5.956;2023-03-22T02:29:42;12.30;77.70
39045;DHT22;52192;52.002;5.956;2023-03-22T02:32:14;12.30;77.60
39045;DHT22;52192;52.002;5.956;2023-03-22T02:37:48;12.40;77.40
39045;DHT22;52192;52.002;5.956;2023-03-22T02:46:20;12.50;77.30
39045;DHT22;52192;52.002;5.956;2023-03-22T02:49:03;12.50;77.20
39045;DHT22;52192;52.002;5.956;2023-03-22T02:51:40;12.40;77.40
39045;DHT22;52192;52.002;5.956;2023-03-22T02:54:21;12.40;77.50
39045;DHT22;52192;52.002;5.956;2023-03-22T02:57:00;12.40;77.80
39045;DHT22;52192;52.002;5.956;2023-03-22T02:59:30;12.40;78.50
39045;DHT22;52192;52.002;5.956;2023-03-22T03:01:58;12.40;78.60
39045;DHT22;52192;52.002;5.956;2023-03-22T03:04:28;12.40;78.80
39045;DHT22;52192;52.002;5.956;2023-03-22T03:06:59;12.40;78.80
39045;DHT22;52192;52.002;5.956;2023-03-22T03:09:27;12.40;78.60
39045;DHT22;52192;52.002;5.956;2023-03-22T03:11:53;12.50;78.50
39045;DHT22;52192;52.002;5.956;2023-03-22T03:14:26;12.40;78.60
39045;DHT22;52192;52.002;5.956;2023-03-22T03:22:56;12.40;78.90
39045;DHT22;52192;52.002;5.956;2023-03-22T03:29:04;12.40;79.50
39045;DHT22;52192;52.002;5.956;2023-03-22T03:33:37;12.40;80.00
39045;DHT22;52192;52.002;5.956;2023-03-22T03:36:09;12.40;80.00
39045;DHT22;52192;52.002;5.956;2023-03-22T03:38:38;12.40;80.20
39045;DHT22;52192;52.002;5.956;2023-03-22T03:41:10;12.40;80.30
39045;DHT22;52192;52.002;5.956;2023-03-22T03:43:38;12.40;80.10
39045;DHT22;52192;52.002;5.956;2023-03-22T03:46:06;12.50;80.30
39045;DHT22;52192;52.002;5.956;2023-03-22T03:48:33;12.50;80.20
39045;DHT22;52192;52.002;5.956;2023-03-22T03:51:01;12.50;80.30
39045;DHT22;52192;52.002;5.956;2023-03-22T03:53:28;12.50;80.10
39045;DHT22;52192;52.002;5.956;2023-03-22T03:55:54;12.50;80.10
39045;DHT22;52192;52.002;5.956;2023-03-22T03:58:20;12.50;80.20
39045;DHT22;52192;52.002;5.956;2023-03-22T04:00:46;12.50;80.20
39045;DHT22;52192;52.002;5.956;2023-03-22T04:03:13;12.50;80.10
39045;DHT22;52192;52.002;5.956;2023-03-22T04:05:39;12.50;80.10
39045;DHT22;52192;52.002;5.956;2023-03-22T04:08:05;12.50;80.10
39045;DHT22;52192;52.002;5.956;2023-03-22T04:10:31;12.50;80.10
39045;DHT22;52192;52.002;5.956;2023-03-22T04:12:57;12.50;80.10
39045;DHT22;52192;52.002;5.956;2023-03-22T04:15:23;12.50;80.10
39045;DHT22;52192;52.002;5.956;2023-03-22T04:17:49;12.50;80.30
39045;DHT22;52192;52.002;5.956;2023-03-22T04:20:15;12.40;80.40
39045;DHT22;52192;52.002;5.956;2023-03-22T04:22:42;12.40;80.40
39045;DHT22;52192;52.002;5.956;2023-03-22T04:25:13;12.40;80.30
39045;DHT22;52192;52.002;5.956;2023-03-22T04:27:44;12.30;80.40
39045;DHT22;52192;52.002;5.956;2023-03-22T04:30:12;12.30;80.30
39045;DHT22;52192;52.002;5.956;2023-03-22T04:32:43;12.30;80.30
39045;DHT22;52192;52.002;5.956;2023-03-22T04:35:09;12.30;80.30
39045;DHT22;52192;52.002;5.956;2023-03-22T04:37:35;12.30;80.30
39045;DHT22;52192;52.002;5.956;2023-03-22T04:40:01;12.30;80.40
39045;DHT22;52192;52.002;5.956;2023-03-22T04:42:31;12.30;80.30
39045;DHT22;52192;52.002;5.956;2023-03-22T04:44:57;12.30;80.30
39045;DHT22;52192;52.002;5.956;2023-03-22T04:47:22;12.20;80.80
39045;DHT22;52192;52.002;5.956;2023-03-22T04:49:48;12.20;80.30
39045;DHT22;52192;52.002;5.956;2023-03-22T04:52:14;12.20;80.30
39045;DHT22;52192;52.002;5.956;2023-03-22T04:54:40;12.20;80.30
39045;DHT22;52192;52.002;5.956;2023-03-22T04:57:06;12.20;80.20
39045;DHT22;52192;52.002;5.956;2023-03-22T04:59:31;12.20;80.30
39045;DHT22;52192;52.002;5.956;2023-03-22T05:01:57;12.20;80.20
39045;DHT22;52192;52.002;5.956;2023-03-22T05:04:23;12.20;80.40
39045;DHT22;52192;52.002;5.956;2023-03-22T05:06:49;12.10;80.30
39045;DHT22;52192;52.002;5.956;2023-03-22T05:09:15;12.20;80.20
39045;DHT22;52192;52.002;5.956;2023-03-22T05:11:41;12.10;80.20
39045;DHT22;52192;52.002;5.956;2023-03-22T05:14:07;12.10;80.40
39045;DHT22;52192;52.002;5.956;2023-03-22T05:16:33;12.10;80.30
39045;DHT22;52192;52.002;5.956;2023-03-22T05:19:00;12.10;80.40
39045;DHT22;52192;52.002;5.956;2023-03-22T05:21:28;12.10;80.40
39045;DHT22;52192;52.002;5.956;2023-03-22T05:24:01;12.00;80.40
39045;DHT22;52192;52.002;5.956;2023-03-22T05:26:26;12.10;80.50
39045;DHT22;52192;52.002;5.956;2023-03-22T05:28:53;12.10;80.40
39045;DHT22;52192;52.002;5.956;2023-03-22T05:31:20;12.10;80.40
39045;DHT22;52192;52.002;5.956;2023-03-22T05:33:50;12.10;80.30
39045;DHT22;52192;52.002;5.956;2023-03-22T05:36:17;12.10;80.20
39045;DHT22;52192;52.002;5.956;2023-03-22T05:38:44;12.10;80.20
39045;DHT22;52192;52.002;5.956;2023-03-22T05:41:10;12.10;80.20
39045;DHT22;52192;52.002;5.956;2023-03-22T05:43:36;12.10;80.40
39045;DHT22;52192;52.002;5.956;2023-03-22T05:46:10;12.10;80.50
39045;DHT22;52192;52.002;5.956;2023-03-22T05:48:37;12.10;80.30
39045;DHT22;52192;52.002;5.956;2023-03-22T05:51:11;12.00;80.40
39045;DHT22;52192;52.002;5.956;2023-03-22T05:53:43;12.00;80.30
39045;DHT22;52192;52.002;5.956;2023-03-22T05:56:09;12.00;80.20
39045;DHT22;52192;52.002;5.956;2023-03-22T05:58:35;12.00;80.20
39045;DHT22;52192;52.002;5.956;2023-03-22T06:01:09;12.00;80.20
39045;DHT22;52192;52.002;5.956;2023-03-22T06:03:36;12.00;80.20
39045;DHT22;52192;52.002;5.956;2023-03-22T06:06:03;12.00;80.20
39045;DHT22;52192;52.002;5.956;2023-03-22T06:08:32;12.00;80.10
39045;DHT22;52192;52.002;5.956;2023-03-22T06:10:58;12.00;80.10
39045;DHT22;52192;52.002;5.956;2023-03-22T06:13:24;12.00;80.10
39045;DHT22;52192;52.002;5.956;2023-03-22T06:15:49;12.00;80.10
39045;DHT22;52192;52.002;5.956;2023-03-22T06:18:16;12.00;80.00
39045;DHT22;52192;52.002;5.956;2023-03-22T06:20:42;12.00;80.00
39045;DHT22;52192;52.002;5.956;2023-03-22T06:23:08;12.00;79.90
39045;DHT22;52192;52.002;5.956;2023-03-22T06:25:34;12.00;79.90
39045;DHT22;52192;52.002;5.956;2023-03-22T06:28:00;12.00;79.90
39045;DHT22;52192;52.002;5.956;2023-03-22T06:30:26;12.00;79.90
39045;DHT22;52192;52.002;5.956;2023-03-22T06:32:52;12.00;79.90
39045;DHT22;52192;52.002;5.956;2023-03-22T06:35:18;12.00;79.80
39045;DHT22;52192;52.002;5.956;2023-03-22T06:37:44;12.00;79.80
39045;DHT22;52192;52.002;5.956;2023-03-22T06:40:10;12.00;79.80
39045;DHT22;52192;52.002;5.956;2023-03-22T06:42:36;11.90;79.70
39045;DHT22;52192;52.002;5.956;2023-03-22T06:45:02;11.90;79.60
39045;DHT22;52192;52.002;5.956;2023-03-22T06:47:28;11.90;79.70
39045;DHT22;52192;52.002;5.956;2023-03-22T06:49:54;12.00;79.60
39045;DHT22;52192;52.002;5.956;2023-03-22T06:52:20;11.90;79.40
39045;DHT22;52192;52.002;5.956;2023-03-22T06:54:45;11.90;79.30
39045;DHT22;52192;52.002;5.956;2023-03-22T06:57:11;11.90;79.30
39045;DHT22;52192;52.002;5.956;2023-03-22T06:59:37;12.00;79.20
39045;DHT22;52192;52.002;5.956;2023-03-22T07:02:03;12.00;79.00
39045;DHT22;52192;52.002;5.956;2023-03-22T07:04:29;12.10;79.00
39045;DHT22;52192;52.002;5.956;2023-03-22T07:06:56;12.20;78.70
39045;DHT22;52192;52.002;5.956;2023-03-22T07:09:21;12.30;78.50
39045;DHT22;52192;52.002;5.956;2023-03-22T07:11:49;12.40;78.30
39045;DHT22;52192;52.002;5.956;2023-03-22T07:14:15;12.40;78.10
39045;DHT22;52192;52.002;5.956;2023-03-22T07:16:41;12.40;77.90
39045;DHT22;52192;52.002;5.956;2023-03-22T07:19:07;12.50;77.90
39045;DHT22;52192;52.002;5.956;2023-03-22T07:21:32;12.50;77.70
39045;DHT22;52192;52.002;5.956;2023-03-22T07:23:58;12.60;77.60
39045;DHT22;52192;52.002;5.956;2023-03-22T07:26:24;12.60;77.40
39045;DHT22;52192;52.002;5.956;2023-03-22T07:28:55;12.70;77.40
39045;DHT22;52192;52.002;5.956;2023-03-22T07:31:20;12.70;77.20
39045;DHT22;52192;52.002;5.956;2023-03-22T07:33:46;12.80;76.90
39045;DHT22;52192;52.002;5.956;2023-03-22T07:36:13;12.80;76.80
39045;DHT22;52192;52.002;5.956;2023-03-22T07:38:38;12.80;76.50
39045;DHT22;52192;52.002;5.956;2023-03-22T07:41:05;12.80;77.00
39045;DHT22;52192;52.002;5.956;2023-03-22T07:43:31;12.80;76.30
39045;DHT22;52192;52.002;5.956;2023-03-22T07:45:56;12.80;76.20
39045;DHT22;52192;52.002;5.956;2023-03-22T07:48:22;12.70;76.30
39045;DHT22;52192;52.002;5.956;2023-03-22T07:50:48;12.70;76.40
39045;DHT22;52192;52.002;5.956;2023-03-22T07:53:14;12.80;76.50
39045;DHT22;52192;52.002;5.956;2023-03-22T07:55:40;12.80;76.30
39045;DHT22;52192;52.002;5.956;2023-03-22T07:58:08;12.70;76.20
39045;DHT22;52192;52.002;5.956;2023-03-22T08:00:34;12.70;76.40
39045;DHT22;52192;52.002;5.956;2023-03-22T08:03:00;12.80;76.30
39045;DHT22;52192;52.002;5.956;2023-03-22T08:05:26;12.80;76.30
39045;DHT22;52192;52.002;5.956;2023-03-22T08:07:52;12.90;76.20
39045;DHT22;52192;52.002;5.956;2023-03-22T08:10:19;13.00;76.10
39045;DHT22;52192;52.002;5.956;2023-03-22T08:12:45;13.00;76.00
39045;DHT22;52192;52.002;5.956;2023-03-22T08:15:11;13.10;75.70
39045;DHT22;52192;52.002;5.956;2023-03-22T08:17:37;13.10;75.80
39045;DHT22;52192;52.002;5.956;2023-03-22T08:20:04;13.00;75.70
39045;DHT22;52192;52.002;5.956;2023-03-22T08:22:34;13.00;75.70
39045;DHT22;52192;52.002;5.956;2023-03-22T08:25:04;13.00;75.50
39045;DHT22;52192;52.002;5.956;2023-03-22T08:27:29;13.00;75.40
39045;DHT22;52192;52.002;5.956;2023-03-22T08:29:56;13.00;75.50
39045;DHT22;52192;52.002;5.956;2023-03-22T08:32:23;13.10;75.60
39045;DHT22;52192;52.002;5.956;2023-03-22T08:34:48;13.20;75.20
39045;DHT22;52192;52.002;5.956;2023-03-22T08:37:14;13.10;74.90
39045;DHT22;52192;52.002;5.956;2023-03-22T08:39:42;13.10;74.70
39045;DHT22;52192;52.002;5.956;2023-03-22T08:42:08;13.20;75.00
39045;DHT22;52192;52.002;5.956;2023-03-22T08:44:34;13.20;74.50
39045;DHT22;52192;52.002;5.956;2023-03-22T08:46:59;13.20;74.50
39045;DHT22;52192;52.002;5.956;2023-03-22T08:49:25;13.20;74.50
39045;DHT22;52192;52.002;5.956;2023-03-22T08:51:51;13.30;74.40
39045;DHT22;52192;52.002;5.956;2023-03-22T08:54:17;13.30;74.20
39045;DHT22;52192;52.002;5.956;2023-03-22T08:56:43;13.40;74.10
39045;DHT22;52192;52.002;5.956;2023-03-22T08:59:09;13.40;73.90
39045;DHT22;52192;52.002;5.956;2023-03-22T09:01:36;13.50;73.70
39045;DHT22;52192;52.002;5.956;2023-03-22T09:04:03;13.60;73.20
39045;DHT22;52192;52.002;5.956;2023-03-22T09:06:29;13.60;72.50
39045;DHT22;52192;52.002;5.956;2023-03-22T09:08:54;13.70;72.30
39045;DHT22;52192;52.002;5.956;2023-03-22T09:11:21;13.80;71.80
39045;DHT22;52192;52.002;5.956;2023-03-22T09:13:48;13.80;71.60
39045;DHT22;52192;52.002;5.956;2023-03-22T09:16:14;13.90;71.70
39045;DHT22;52192;52.002;5.956;2023-03-22T09:18:41;14.00;71.30
39045;DHT22;52192;52.002;5.956;2023-03-22T09:21:08;14.00;70.80
39045;DHT22;52192;52.002;5.956;2023-03-22T09:23:34;14.00;71.40
39045;DHT22;52192;52.002;5.956;2023-03-22T09:26:04;14.10;70.80
39045;DHT22;52192;52.002;5.956;2023-03-22T09:28:31;14.20;70.30
39045;DHT22;52192;52.002;5.956;2023-03-22T09:31:01;14.20;69.80
39045;DHT22;52192;52.002;5.956;2023-03-22T09:33:27;14.20;69.90
39045;DHT22;52192;52.002;5.956;2023-03-22T09:35:54;14.20;69.00
39045;DHT22;52192;52.002;5.956;2023-03-22T09:38:21;14.20;68.90
39045;DHT22;52192;52.002;5.956;2023-03-22T09:40:55;14.20;69.40
39045;DHT22;52192;52.002;5.956;2023-03-22T09:43:45;14.20;68.60
39045;DHT22;52192;52.002;5.956;2023-03-22T09:46:20;14.20;68.80
39045;DHT22;52192;52.002;5.956;2023-03-22T09:48:48;14.10;68.90
39045;DHT22;52192;52.002;5.956;2023-03-22T09:51:35;14.00;68.80
39045;DHT22;52192;52.002;5.956;2023-03-22T09:54:02;14.00;68.60
39045;DHT22;52192;52.002;5.956;2023-03-22T09:56:29;13.90;69.10
39045;DHT22;52192;52.002;5.956;2023-03-22T09:59:15;13.90;69.10
39045;DHT22;52192;52.002;5.956;2023-03-22T10:02:03;13.90;69.20
39045;DHT22;52192;52.002;5.956;2023-03-22T10:12:28;13.80;69.10
39045;DHT22;52192;52.002;5.956;2023-03-22T10:15:14;13.80;69.30
39045;DHT22;52192;52.002;5.956;2023-03-22T10:17:43;13.90;69.10
39045;DHT22;52192;52.002;5.956;2023-03-22T10:23:04;13.90;68.70
39045;DHT22;52192;52.002;5.956;2023-03-22T10:25:35;13.80;69.10
39045;DHT22;52192;52.002;5.956;2023-03-22T10:28:14;13.80;69.30
39045;DHT22;52192;52.002;5.956;2023-03-22T10:30:41;13.80;69.70
39045;DHT22;52192;52.002;5.956;2023-03-22T10:33:13;13.70;70.20
39045;DHT22;52192;52.002;5.956;2023-03-22T10:35:42;13.70;70.50
39045;DHT22;52192;52.002;5.956;2023-03-22T10:38:18;13.70;71.00
39045;DHT22;52192;52.002;5.956;2023-03-22T10:40:45;13.70;71.40
39045;DHT22;52192;52.002;5.956;2023-03-22T10:43:22;13.60;71.50
39045;DHT22;52192;52.002;5.956;2023-03-22T10:45:51;13.60;71.90
39045;DHT22;52192;52.002;5.956;2023-03-22T10:50:52;13.50;72.40
39045;DHT22;52192;52.002;5.956;2023-03-22T10:53:23;13.50;72.60
39045;DHT22;52192;52.002;5.956;2023-03-22T10:55:50;13.50;73.00
39045;DHT22;52192;52.002;5.956;2023-03-22T10:58:21;13.50;73.40
39045;DHT22;52192;52.002;5.956;2023-03-22T11:00:54;13.40;74.00
39045;DHT22;52192;52.002;5.956;2023-03-22T11:03:32;13.30;74.40
39045;DHT22;52192;52.002;5.956;2023-03-22T11:06:08;13.40;75.00
39045;DHT22;52192;52.002;5.956;2023-03-22T11:09:00;13.40;75.30
39045;DHT22;52192;52.002;5.956;2023-03-22T11:11:27;13.40;75.40
39045;DHT22;52192;52.002;5.956;2023-03-22T11:14:15;13.30;75.70
39045;DHT22;52192;52.002;5.956;2023-03-22T11:19:15;13.30;75.90
39045;DHT22;52192;52.002;5.956;2023-03-22T11:21:42;13.30;76.30
39045;DHT22;52192;52.002;5.956;2023-03-22T11:24:12;13.40;76.40
39045;DHT22;52192;52.002;5.956;2023-03-22T11:26:38;13.40;76.40
39045;DHT22;52192;52.002;5.956;2023-03-22T11:29:15;13.40;76.50
39045;DHT22;52192;52.002;5.956;2023-03-22T11:31:58;13.40;76.60
39045;DHT22;52192;52.002;5.956;2023-03-22T11:34:33;13.40;76.90
39045;DHT22;52192;52.002;5.956;2023-03-22T11:36:59;13.30;77.20
39045;DHT22;52192;52.002;5.956;2023-03-22T11:39:27;13.20;77.60
39045;DHT22;52192;52.002;5.956;2023-03-22T11:42:00;13.20;78.00
39045;DHT22;52192;52.002;5.956;2023-03-22T11:44:31;13.20;78.00
39045;DHT22;52192;52.002;5.956;2023-03-22T11:47:00;13.20;77.90
39045;DHT22;52192;52.002;5.956;2023-03-22T11:49:39;13.20;78.30
39045;DHT22;52192;52.002;5.956;2023-03-22T11:52:10;13.20;77.60
39045;DHT22;52192;52.002;5.956;2023-03-22T11:54:37;13.20;77.80
39045;DHT22;52192;52.002;5.956;2023-03-22T11:57:10;13.20;77.80
39045;DHT22;52192;52.002;5.956;2023-03-22T12:00:11;13.20;77.60
39045;DHT22;52192;52.002;5.956;2023-03-22T12:03:05;13.20;77.60
39045;DHT22;52192;52.002;5.956;2023-03-22T12:05:33;13.20;77.80
39045;DHT22;52192;52.002;5.956;2023-03-22T12:08:02;13.30;77.70
39045;DHT22;52192;52.002;5.956;2023-03-22T12:10:34;13.30;77.40
39045;DHT22;52192;52.002;5.956;2023-03-22T12:15:41;13.30;77.10
39045;DHT22;52192;52.002;5.956;2023-03-22T12:18:25;13.40;76.90
39045;DHT22;52192;52.002;5.956;2023-03-22T12:20:55;13.30;76.90
39045;DHT22;52192;52.002;5.956;2023-03-22T12:23:31;13.30;76.90
39045;DHT22;52192;52.002;5.956;2023-03-22T12:31:06;13.40;76.60
39045;DHT22;52192;52.002;5.956;2023-03-22T12:33:43;13.40;76.70
39045;DHT22;52192;52.002;5.956;2023-03-22T12:36:15;13.40;76.70
39045;DHT22;52192;52.002;5.956;2023-03-22T12:41:33;13.40;76.50
39045;DHT22;52192;52.002;5.956;2023-03-22T12:44:25;13.50;76.50
39045;DHT22;52192;52.002;5.956;2023-03-22T12:47:00;13.50;76.50
39045;DHT22;52192;52.002;5.956;2023-03-22T12:49:38;13.60;76.50
39045;DHT22;52192;52.002;5.956;2023-03-22T12:54:45;13.50;75.90
39045;DHT22;52192;52.002;5.956;2023-03-22T12:57:14;13.50;76.00
39045;DHT22;52192;52.002;5.956;2023-03-22T12:59:43;13.50;76.10
39045;DHT22;52192;52.002;5.956;2023-03-22T13:15:27;13.60;75.80
39045;DHT22;52192;52.002;5.956;2023-03-22T13:17:48;13.60;75.70
39045;DHT22;52192;52.002;5.956;2023-03-22T13:27:57;13.70;75.60
39045;DHT22;52192;52.002;5.956;2023-03-22T13:35:45;13.70;75.40
39045;DHT22;52192;52.002;5.956;2023-03-22T13:38:55;13.70;75.30
39045;DHT22;52192;52.002;5.956;2023-03-22T13:41:27;13.70;75.20
39045;DHT22;52192;52.002;5.956;2023-03-22T13:43:59;13.70;75.20
39045;DHT22;52192;52.002;5.956;2023-03-22T13:46:41;13.70;75.30
39045;DHT22;52192;52.002;5.956;2023-03-22T13:49:50;13.70;75.30
39045;DHT22;52192;52.002;5.956;2023-03-22T13:53:02;13.70;75.10
39045;DHT22;52192;52.002;5.956;2023-03-22T13:55:40;13.70;75.10
39045;DHT22;52192;52.002;5.956;2023-03-22T14:00:57;13.70;75.20
39045;DHT22;52192;52.002;5.956;2023-03-22T14:03:35;13.80;75.10
39045;DHT22;52192;52.002;5.956;2023-03-22T14:08:36;13.80;74.90
39045;DHT22;52192;52.002;5.956;2023-03-22T14:11:32;13.80;75.00
39045;DHT22;52192;52.002;5.956;2023-03-22T14:14:04;13.80;75.00
39045;DHT22;52192;52.002;5.956;2023-03-22T14:16:40;13.80;75.40
39045;DHT22;52192;52.002;5.956;2023-03-22T14:19:07;13.70;75.60
39045;DHT22;52192;52.002;5.956;2023-03-22T14:21:40;13.70;75.90
39045;DHT22;52192;52.002;5.956;2023-03-22T14:24:07;13.70;76.20
39045;DHT22;52192;52.002;5.956;2023-03-22T14:26:39;13.70;76.20
39045;DHT22;52192;52.002;5.956;2023-03-22T14:31:33;13.70;76.70
39045;DHT22;52192;52.002;5.956;2023-03-22T14:34:04;13.70;76.80
39045;DHT22;52192;52.002;5.956;2023-03-22T14:36:37;13.70;77.00
39045;DHT22;52192;52.002;5.956;2023-03-22T14:39:16;13.80;77.60
39045;DHT22;52192;52.002;5.956;2023-03-22T14:42:05;13.70;77.90
39045;DHT22;52192;52.002;5.956;2023-03-22T14:44:46;13.60;78.60
39045;DHT22;52192;52.002;5.956;2023-03-22T14:47:24;13.50;78.80
39045;DHT22;52192;52.002;5.956;2023-03-22T14:49:55;13.50;79.20
39045;DHT22;52192;52.002;5.956;2023-03-22T14:52:24;13.60;79.40
39045;DHT22;52192;52.002;5.956;2023-03-22T14:55:16;13.60;79.70
39045;DHT22;52192;52.002;5.956;2023-03-22T14:57:53;13.60;79.50
39045;DHT22;52192;52.002;5.956;2023-03-22T15:00:21;13.60;79.70
39045;DHT22;52192;52.002;5.956;2023-03-22T15:02:57;13.60;79.90
39045;DHT22;52192;52.002;5.956;2023-03-22T15:05:26;13.60;80.00
39045;DHT22;52192;52.002;5.956;2023-03-22T15:07:54;13.50;80.60
39045;DHT22;52192;52.002;5.956;2023-03-22T15:10:29;13.50;80.70
39045;DHT22;52192;52.002;5.956;2023-03-22T15:12:56;13.50;80.50
39045;DHT22;52192;52.002;5.956;2023-03-22T15:15:26;13.60;80.80
39045;DHT22;52192;52.002;5.956;2023-03-22T15:17:53;13.50;81.20
39045;DHT22;52192;52.002;5.956;2023-03-22T15:20:24;13.50;81.10
39045;DHT22;52192;52.002;5.956;2023-03-22T15:22:53;13.50;81.20
39045;DHT22;52192;52.002;5.956;2023-03-22T15:25:33;13.50;81.60
39045;DHT22;52192;52.002;5.956;2023-03-22T15:28:01;13.40;81.90
39045;DHT22;52192;52.002;5.956;2023-03-22T15:30:28;13.40;82.20
39045;DHT22;52192;52.002;5.956;2023-03-22T15:33:03;13.30;82.20
39045;DHT22;52192;52.002;5.956;2023-03-22T15:35:31;13.40;82.40
39045;DHT22;52192;52.002;5.956;2023-03-22T15:37:57;13.40;82.30
39045;DHT22;52192;52.002;5.956;2023-03-22T15:43:48;13.40;82.50
39045;DHT22;52192;52.002;5.956;2023-03-22T15:51:15;13.30;83.10
39045;DHT22;52192;52.002;5.956;2023-03-22T15:53:43;13.30;84.20
39045;DHT22;52192;52.002;5.956;2023-03-22T15:56:35;13.20;83.70
39045;DHT22;52192;52.002;5.956;2023-03-22T15:59:03;13.20;84.00
39045;DHT22;52192;52.002;5.956;2023-03-22T16:01:49;13.20;84.20
39045;DHT22;52192;52.002;5.956;2023-03-22T16:04:18;13.30;84.00
39045;DHT22;52192;52.002;5.956;2023-03-22T16:06:44;13.30;84.00
39045;DHT22;52192;52.002;5.956;2023-03-22T16:09:10;13.30;83.80
39045;DHT22;52192;52.002;5.956;2023-03-22T16:11:36;13.40;83.80
39045;DHT22;52192;52.002;5.956;2023-03-22T16:14:02;13.40;83.80
39045;DHT22;52192;52.002;5.956;2023-03-22T16:16:28;13.40;84.10
39045;DHT22;52192;52.002;5.956;2023-03-22T16:18:54;13.40;84.00
39045;DHT22;52192;52.002;5.956;2023-03-22T16:21:26;13.30;84.10
39045;DHT22;52192;52.002;5.956;2023-03-22T16:23:54;13.40;84.30
39045;DHT22;52192;52.002;5.956;2023-03-22T16:26:20;13.40;84.40
39045;DHT22;52192;52.002;5.956;2023-03-22T16:28:45;13.40;85.00
39045;DHT22;52192;52.002;5.956;2023-03-22T16:31:16;13.40;84.60
39045;DHT22;52192;52.002;5.956;2023-03-22T16:33:43;13.30;84.50
39045;DHT22;52192;52.002;5.956;2023-03-22T16:36:11;13.30;84.60
39045;DHT22;52192;52.002;5.956;2023-03-22T16:38:38;13.40;84.60
39045;DHT22;52192;52.002;5.956;2023-03-22T16:41:05;13.30;84.60
39045;DHT22;52192;52.002;5.956;2023-03-22T16:43:31;13.30;85.00
39045;DHT22;52192;52.002;5.956;2023-03-22T16:45:57;13.20;85.40
39045;DHT22;52192;52.002;5.956;2023-03-22T16:48:25;13.10;85.80
39045;DHT22;52192;52.002;5.956;2023-03-22T16:50:52;13.10;86.00
39045;DHT22;52192;52.002;5.956;2023-03-22T16:53:19;13.10;86.10
39045;DHT22;52192;52.002;5.956;2023-03-22T16:55:45;13.10;86.10
39045;DHT22;52192;52.002;5.956;2023-03-22T16:58:12;13.10;85.90
39045;DHT22;52192;52.002;5.956;2023-03-22T17:00:38;13.10;85.90
39045;DHT22;52192;52.002;5.956;2023-03-22T17:03:05;13.10;85.80
39045;DHT22;52192;52.002;5.956;2023-03-22T17:05:33;13.10;86.30
39045;DHT22;52192;52.002;5.956;2023-03-22T17:08:00;13.10;86.20
39045;DHT22;52192;52.002;5.956;2023-03-22T17:10:27;13.10;86.30
39045;DHT22;52192;52.002;5.956;2023-03-22T17:12:54;13.00;86.20
39045;DHT22;52192;52.002;5.956;2023-03-22T17:17:49;13.10;86.20
39045;DHT22;52192;52.002;5.956;2023-03-22T17:20:15;13.00;86.40
39045;DHT22;52192;52.002;5.956;2023-03-22T17:22:40;13.10;86.60
39045;DHT22;52192;52.002;5.956;2023-03-22T17:25:09;13.00;86.60
39045;DHT22;52192;52.002;5.956;2023-03-22T17:27:36;13.00;86.70
39045;DHT22;52192;52.002;5.956;2023-03-22T17:30:02;13.00;87.00
39045;DHT22;52192;52.002;5.956;2023-03-22T17:32:28;12.90;87.00